createdAt,value
2018-11-12T00:02:11.185Z,67.70
2018-11-12T00:04:39.081Z,77.72
2018-11-12T00:07:06.807Z,74.67
2018-11-12T00:09:34.495Z,70.20
2018-11-12T00:12:02.195Z,71.17
2018-11-12T00:14:29.929Z,70.03
2018-11-12T00:16:57.664Z,69.00
2018-11-12T00:19:25.297Z,75.00
2018-11-12T00:21:52.963Z,72.73
2018-11-12T00:24:20.589Z,75.65
2018-11-12T00:26:48.289Z,73.70
2018-11-12T00:29:16.284Z,64.70
2018-11-12T00:31:43.931Z,83.05
2018-11-12T00:34:11.588Z,81.00
2018-11-12T00:36:39.229Z,79.70
2018-11-12T00:39:09.456Z,83.17
2018-11-12T00:41:37.080Z,89.47
2018-11-12T00:44:04.862Z,77.22
2018-11-12T00:46:32.442Z,72.37
2018-11-12T00:49:00.039Z,79.13
2018-11-12T00:51:27.664Z,77.60
2018-11-12T00:53:55.286Z,73.00
2018-11-12T00:56:22.914Z,72.82
2018-11-12T00:58:51.033Z,72.67
2018-11-12T01:01:18.676Z,73.02
2018-11-12T01:03:46.284Z,66.33
2018-11-12T01:06:13.909Z,73.47
2018-11-12T01:08:41.665Z,66.27
2018-11-12T01:11:09.725Z,72.62
2018-11-12T01:13:37.322Z,65.20
2018-11-12T01:16:05.563Z,72.00
2018-11-12T01:18:33.631Z,72.00
2018-11-12T01:21:01.214Z,67.70
2018-11-12T01:23:28.784Z,70.32
2018-11-12T01:25:56.445Z,71.40
2018-11-12T01:28:24.077Z,70.03
2018-11-12T01:30:55.206Z,66.67
2018-11-12T01:33:22.826Z,69.30
2018-11-12T01:35:50.476Z,70.85
2018-11-12T01:38:18.130Z,65.83
2018-11-12T01:40:45.792Z,66.40
2018-11-12T01:43:13.438Z,70.87
2018-11-12T01:45:41.042Z,63.63
2018-11-12T01:48:08.621Z,68.47
2018-11-12T01:50:42.964Z,62.07
2018-11-12T01:53:10.561Z,70.83
2018-11-12T01:55:38.134Z,66.12
2018-11-12T01:58:05.782Z,65.13
2018-11-12T02:00:33.468Z,63.57
2018-11-12T02:03:01.066Z,64.10
2018-11-12T02:05:28.653Z,71.22
2018-11-12T02:07:56.267Z,69.60
2018-11-12T02:10:23.874Z,62.30
2018-11-12T02:12:51.665Z,69.67
2018-11-12T02:15:20.382Z,58.97
2018-11-12T02:17:48.570Z,60.15
2018-11-12T02:20:17.348Z,63.37
2018-11-12T02:22:46.041Z,61.63
2018-11-12T02:25:14.258Z,67.67
2018-11-12T02:27:41.887Z,67.67
2018-11-12T02:30:14.234Z,64.45
2018-11-12T02:32:41.954Z,64.47
2018-11-12T02:35:10.090Z,61.63
2018-11-12T02:37:38.240Z,60.87
2018-11-12T02:40:08.253Z,67.13
2018-11-12T02:42:35.921Z,68.17
2018-11-12T02:45:03.809Z,58.45
2018-11-12T02:47:31.632Z,64.27
2018-11-12T02:49:59.487Z,65.37
2018-11-12T02:52:27.385Z,67.72
2018-11-12T02:54:55.157Z,65.12
2018-11-12T02:57:23.025Z,67.75
2018-11-12T02:59:51.031Z,62.58
2018-11-12T03:02:18.641Z,71.02
2018-11-12T03:04:46.277Z,79.27
2018-11-12T03:07:14.107Z,61.97
2018-11-12T03:09:41.722Z,67.27
2018-11-12T03:12:09.452Z,75.27
2018-11-12T03:14:37.092Z,69.35
2018-11-12T03:17:05.071Z,74.75
2018-11-12T03:19:32.690Z,76.55
2018-11-12T03:22:00.740Z,72.47
2018-11-12T03:24:28.496Z,70.25
2018-11-12T03:26:56.180Z,71.77
2018-11-12T03:29:23.840Z,76.70
2018-11-12T03:31:51.500Z,76.33
2018-11-12T03:34:19.586Z,73.80
2018-11-12T03:36:47.262Z,70.42
2018-11-12T03:39:14.924Z,74.23
2018-11-12T03:41:42.686Z,75.28
2018-11-12T03:44:10.304Z,74.05
2018-11-12T03:46:38.030Z,73.47
2018-11-12T03:49:05.700Z,71.33
2018-11-12T03:51:33.388Z,67.47
2018-11-12T03:54:01.072Z,70.57
2018-11-12T03:56:28.717Z,72.60
2018-11-12T03:58:56.314Z,71.40
2018-11-12T04:01:28.668Z,74.30
2018-11-12T04:03:56.332Z,82.07
2018-11-12T04:06:23.911Z,69.05
2018-11-12T04:08:51.548Z,79.97
2018-11-12T04:11:19.521Z,73.53
2018-11-12T04:13:47.251Z,72.30
2018-11-12T04:16:14.868Z,80.00
2018-11-12T04:18:42.540Z,82.07
2018-11-12T04:21:10.175Z,73.12
2018-11-12T04:23:37.831Z,75.37
2018-11-12T04:26:05.497Z,74.00
2018-11-12T04:28:33.460Z,72.80
2018-11-12T04:31:01.096Z,69.70
2018-11-12T04:33:28.790Z,66.93
2018-11-12T04:35:56.491Z,71.37
2018-11-12T04:38:24.089Z,68.77
2018-11-12T04:40:51.713Z,63.78
2018-11-12T04:43:19.411Z,73.15
2018-11-12T04:45:47.035Z,66.83
2018-11-12T04:48:14.686Z,66.63
2018-11-12T04:50:42.325Z,63.13
2018-11-12T04:53:09.921Z,61.85
2018-11-12T04:55:37.542Z,64.03
2018-11-12T04:58:05.137Z,60.63
2018-11-12T05:00:33.080Z,71.02
2018-11-12T05:03:00.709Z,58.90
2018-11-12T05:05:28.522Z,62.05
2018-11-12T05:07:56.205Z,63.00
2018-11-12T05:10:24.920Z,58.20
2018-11-12T05:12:52.964Z,54.40
2018-11-12T05:15:21.498Z,54.30
2018-11-12T05:17:49.137Z,60.77
2018-11-12T05:20:18.244Z,60.40
2018-11-12T05:22:45.877Z,57.33
2018-11-12T05:25:13.420Z,51.37
2018-11-12T05:27:41.026Z,59.17
2018-11-12T05:30:12.571Z,58.10
2018-11-12T05:32:40.305Z,52.67
2018-11-12T05:35:07.899Z,43.37
2018-11-12T05:37:35.872Z,48.23
2018-11-12T05:40:05.661Z,48.55
2018-11-12T05:42:33.301Z,51.70
2018-11-12T05:45:00.963Z,47.60
2018-11-12T05:47:28.607Z,51.10
2018-11-12T05:49:56.247Z,54.77
2018-11-12T05:52:23.901Z,52.80
2018-11-12T05:54:51.501Z,50.40
2018-11-12T05:57:19.441Z,48.92
2018-11-12T05:59:47.085Z,54.95
2018-11-12T06:02:14.630Z,49.80
2018-11-12T06:04:42.296Z,50.43
2018-11-12T06:07:09.928Z,52.30
2018-11-12T06:09:37.581Z,50.58
2018-11-12T06:12:05.672Z,52.77
2018-11-12T06:14:33.295Z,52.83
2018-11-12T06:17:00.874Z,45.80
2018-11-12T06:19:28.561Z,52.63
2018-11-12T06:21:56.150Z,57.53
2018-11-12T06:24:23.739Z,52.37
2018-11-12T06:26:51.404Z,47.98
2018-11-12T06:29:19.024Z,55.12
2018-11-12T06:31:46.607Z,50.87
2018-11-12T06:34:14.268Z,47.43
2018-11-12T06:36:41.902Z,52.35
2018-11-12T06:39:09.764Z,49.90
2018-11-12T06:41:37.528Z,42.23
2018-11-12T06:44:05.894Z,48.50
2018-11-12T06:46:33.590Z,49.13
2018-11-12T06:49:01.236Z,42.70
2018-11-12T06:51:28.915Z,44.08
2018-11-12T06:53:56.578Z,46.23
2018-11-12T06:56:24.186Z,51.63
2018-11-12T06:58:51.741Z,42.60
2018-11-12T07:01:19.314Z,46.83
2018-11-12T07:03:46.981Z,43.83
2018-11-12T07:06:14.788Z,42.87
2018-11-12T07:08:42.747Z,45.17
2018-11-12T07:11:10.385Z,42.83
2018-11-12T07:13:38.169Z,37.63
2018-11-12T07:16:06.133Z,38.13
2018-11-12T07:18:33.796Z,40.23
2018-11-12T07:21:01.426Z,37.48
2018-11-12T07:23:29.018Z,36.03
2018-11-12T07:25:56.625Z,36.83
2018-11-12T07:28:24.165Z,41.53
2018-11-12T07:30:51.860Z,37.05
2018-11-12T07:33:19.433Z,39.70
2018-11-12T07:35:47.021Z,35.90
2018-11-12T07:38:14.739Z,37.50
2018-11-12T07:40:42.382Z,36.83
2018-11-12T07:43:09.998Z,36.83
2018-11-12T07:45:37.621Z,36.98
2018-11-12T07:48:05.267Z,36.13
2018-11-12T07:50:32.914Z,39.50
2018-11-12T07:53:00.506Z,39.00
2018-11-12T07:55:28.570Z,30.80
2018-11-12T07:57:57.026Z,33.77
2018-11-12T08:00:26.985Z,34.08
2018-11-12T08:02:59.215Z,31.13
2018-11-12T08:05:26.875Z,39.53
2018-11-12T08:07:54.567Z,34.18
2018-11-12T08:10:22.199Z,35.78
2018-11-12T08:12:49.801Z,33.10
2018-11-12T08:15:18.703Z,29.47
2018-11-12T08:17:46.462Z,32.10
2018-11-12T08:20:15.381Z,31.57
2018-11-12T08:22:44.222Z,31.33
2018-11-12T08:25:12.227Z,29.60
2018-11-12T08:27:40.332Z,29.60
2018-11-12T08:30:11.609Z,32.17
2018-11-12T08:32:39.140Z,28.97
2018-11-12T08:35:06.806Z,27.13
2018-11-12T08:37:34.468Z,28.07
2018-11-12T08:40:02.615Z,27.30
2018-11-12T08:42:31.509Z,28.40
2018-11-12T08:44:59.154Z,26.67
2018-11-12T08:47:26.750Z,24.95
2018-11-12T08:49:54.368Z,28.52
2018-11-12T08:52:22.041Z,28.33
2018-11-12T08:54:49.615Z,25.63
2018-11-12T08:57:17.187Z,26.30
2018-11-12T08:59:44.872Z,23.40
2018-11-12T09:02:12.449Z,24.43
2018-11-12T09:04:40.061Z,20.97
2018-11-12T09:07:07.812Z,19.75
2018-11-12T09:09:35.427Z,23.83
2018-11-12T09:12:03.002Z,22.17
2018-11-12T09:14:30.667Z,19.32
2018-11-12T09:16:58.290Z,15.13
2018-11-12T09:19:25.911Z,19.10
2018-11-12T09:21:53.603Z,19.55
2018-11-12T09:24:21.464Z,18.62
2018-11-12T09:26:49.144Z,18.07
2018-11-12T09:29:16.792Z,21.53
2018-11-12T09:31:44.478Z,21.10
2018-11-12T09:34:12.075Z,18.40
2018-11-12T09:36:39.829Z,20.48
2018-11-12T09:39:09.659Z,18.17
2018-11-12T09:41:37.342Z,21.50
2018-11-12T09:44:05.357Z,17.97
2018-11-12T09:46:32.961Z,17.70
2018-11-12T09:49:00.682Z,21.07
2018-11-12T09:51:28.348Z,18.05
2018-11-12T09:53:56.088Z,19.23
2018-11-12T09:56:24.146Z,20.73
2018-11-12T09:58:51.730Z,20.77
2018-11-12T10:01:19.985Z,22.23
2018-11-12T10:03:48.373Z,21.03
2018-11-12T10:06:16.201Z,20.25
2018-11-12T10:08:44.501Z,27.87
2018-11-12T10:11:13.272Z,17.90
2018-11-12T10:13:40.858Z,16.47
2018-11-12T10:16:09.021Z,13.17
2018-11-12T10:18:33.766Z,13.37
2018-11-12T10:21:01.478Z,14.83
2018-11-12T10:23:29.125Z,14.07
2018-11-12T10:25:56.744Z,11.85
2018-11-12T10:28:24.426Z,12.70
2018-11-12T10:30:52.164Z,14.40
2018-11-12T10:33:20.003Z,14.98
2018-11-12T10:35:47.669Z,17.27
2018-11-12T10:38:15.342Z,12.60
2018-11-12T10:40:42.999Z,15.13
2018-11-12T10:43:10.691Z,14.67
2018-11-12T10:45:38.395Z,15.10
2018-11-12T10:48:06.607Z,13.85
2018-11-12T10:50:34.281Z,11.90
2018-11-12T10:53:02.025Z,11.73
2018-11-12T10:55:29.973Z,13.95
2018-11-12T10:57:57.557Z,9.00
2018-11-12T11:00:35.372Z,9.95
2018-11-12T11:03:12.082Z,6.77
2018-11-12T11:05:40.932Z,11.40
2018-11-12T11:08:08.664Z,10.10
2018-11-12T11:10:36.353Z,7.33
2018-11-12T11:13:05.158Z,7.00
2018-11-12T11:15:33.697Z,15.20
2018-11-12T11:18:01.286Z,10.97
2018-11-12T11:20:29.438Z,6.87
2018-11-12T11:23:00.581Z,6.37
2018-11-12T11:25:28.382Z,8.47
2018-11-12T11:27:56.012Z,6.80
2018-11-12T11:30:24.062Z,6.65
2018-11-12T11:32:51.706Z,8.70
2018-11-12T11:35:20.136Z,10.32
2018-11-12T11:37:47.789Z,7.37
2018-11-12T11:40:16.948Z,6.77
2018-11-12T11:42:44.563Z,7.07
2018-11-12T11:45:13.262Z,6.73
2018-11-12T11:47:41.530Z,7.33
2018-11-12T11:50:11.409Z,7.40
2018-11-12T11:52:39.003Z,5.70
2018-11-12T11:55:09.023Z,7.10
2018-11-12T11:57:36.727Z,9.40
2018-11-12T12:00:08.628Z,7.63
2018-11-12T12:02:36.561Z,6.50
2018-11-12T12:05:05.974Z,10.87
2018-11-12T12:07:34.280Z,8.80
2018-11-12T12:10:01.979Z,7.13
2018-11-12T12:12:29.585Z,11.20
2018-11-12T12:14:57.186Z,8.03
2018-11-12T12:17:24.856Z,7.97
2018-11-12T12:19:52.620Z,8.40
2018-11-12T12:22:20.185Z,9.03
2018-11-12T12:24:47.974Z,7.60
2018-11-12T12:27:15.600Z,8.08
2018-11-12T12:29:43.292Z,17.23
2018-11-12T12:32:10.949Z,8.27
2018-11-12T12:34:38.558Z,9.63
2018-11-12T12:37:06.232Z,8.65
2018-11-12T12:39:33.883Z,9.07
2018-11-12T12:42:01.549Z,7.67
2018-11-12T12:44:31.055Z,7.95
2018-11-12T12:46:58.591Z,13.97
2018-11-12T12:49:26.315Z,10.45
2018-11-12T12:51:53.860Z,14.38
2018-11-12T12:54:21.763Z,11.00
2018-11-12T12:56:49.505Z,10.97
2018-11-12T12:59:17.081Z,13.77
2018-11-12T13:01:44.784Z,9.43
2018-11-12T13:04:12.416Z,10.65
2018-11-12T13:06:40.090Z,11.10
2018-11-12T13:09:09.008Z,9.63
2018-11-12T13:11:36.624Z,10.03
2018-11-12T13:14:04.518Z,10.70
2018-11-12T13:16:32.389Z,9.67
2018-11-12T13:18:59.980Z,9.80
2018-11-12T13:21:27.720Z,11.55
2018-11-12T13:23:55.268Z,10.95
2018-11-12T13:26:22.891Z,9.77
2018-11-12T13:28:50.912Z,11.33
2018-11-12T13:31:19.228Z,10.50
2018-11-12T13:33:46.844Z,10.65
2018-11-12T13:36:14.587Z,11.43
2018-11-12T13:38:42.270Z,10.50
2018-11-12T13:41:09.914Z,9.60
2018-11-12T13:43:37.592Z,10.68
2018-11-12T13:46:05.652Z,11.00
2018-11-12T13:48:33.530Z,14.63
2018-11-12T13:51:01.258Z,11.67
2018-11-12T13:53:29.247Z,11.90
2018-11-12T13:55:56.824Z,11.53
2018-11-12T13:58:24.540Z,12.82
2018-11-12T14:00:52.219Z,14.43
2018-11-12T14:03:19.826Z,12.10
2018-11-12T14:05:47.488Z,13.23
2018-11-12T14:08:15.152Z,16.90
2018-11-12T14:10:42.898Z,13.13
2018-11-12T14:13:11.478Z,16.93
2018-11-12T14:15:39.688Z,16.40
2018-11-12T14:18:07.318Z,16.75
2018-11-12T14:20:35.429Z,21.10
2018-11-12T14:23:02.963Z,21.27
2018-11-12T14:25:30.539Z,17.47
2018-11-12T14:27:58.501Z,20.20
2018-11-12T14:30:28.142Z,21.13
2018-11-12T14:32:56.065Z,19.70
2018-11-12T14:35:23.991Z,19.07
2018-11-12T14:37:51.597Z,23.80
2018-11-12T14:40:19.394Z,22.00
2018-11-12T14:42:47.308Z,23.57
2018-11-12T14:45:16.171Z,24.90
2018-11-12T14:47:44.234Z,21.00
2018-11-12T14:50:11.951Z,24.80
2018-11-12T14:52:39.961Z,20.23
2018-11-12T14:55:10.251Z,23.57
2018-11-12T14:57:37.971Z,28.67
2018-11-12T15:00:11.523Z,26.07
2018-11-12T15:02:39.149Z,28.33
2018-11-12T15:05:06.928Z,27.55
2018-11-12T15:07:34.562Z,26.17
2018-11-12T15:10:02.623Z,26.93
2018-11-12T15:12:30.287Z,27.07
2018-11-12T15:14:58.005Z,28.40
2018-11-12T15:17:25.689Z,34.37
2018-11-12T15:19:53.284Z,32.77
2018-11-12T15:22:20.899Z,31.75
2018-11-12T15:24:48.548Z,38.92
2018-11-12T15:27:16.232Z,31.73
2018-11-12T15:29:44.001Z,43.13
2018-11-12T15:32:11.664Z,36.30
2018-11-12T15:34:40.328Z,41.77
2018-11-12T15:37:08.193Z,37.33
2018-11-12T15:39:35.706Z,38.70
2018-11-12T15:42:03.320Z,40.12
2018-11-12T15:44:30.954Z,39.20
2018-11-12T15:46:58.554Z,39.87
2018-11-12T15:49:26.176Z,36.43
2018-11-12T15:51:53.904Z,40.85
2018-11-12T15:54:21.539Z,42.43
2018-11-12T15:56:49.380Z,35.80
2018-11-12T15:59:16.994Z,43.30
2018-11-12T16:01:44.655Z,35.80
2018-11-12T16:04:12.209Z,36.23
2018-11-12T16:06:39.864Z,34.83
2018-11-12T16:09:11.545Z,39.25
2018-11-12T16:11:39.107Z,39.27
2018-11-12T16:14:07.202Z,39.53
2018-11-12T16:16:34.958Z,38.00
2018-11-12T16:19:03.038Z,42.45
2018-11-12T16:21:30.803Z,47.20
2018-11-12T16:23:58.430Z,43.07
2018-11-12T16:26:26.156Z,45.15
2018-11-12T16:28:53.731Z,46.60
2018-11-12T16:31:21.859Z,45.87
2018-11-12T16:33:49.519Z,44.70
2018-11-12T16:36:17.191Z,44.53
2018-11-12T16:38:44.789Z,44.23
2018-11-12T16:41:12.503Z,50.90
2018-11-12T16:43:40.197Z,42.27
2018-11-12T16:46:07.883Z,46.50
2018-11-12T16:48:35.510Z,43.80
2018-11-12T16:51:03.131Z,47.50
2018-11-12T16:53:30.746Z,44.30
2018-11-12T16:55:58.315Z,44.33
2018-11-12T16:58:25.893Z,53.38
2018-11-12T17:00:54.139Z,49.23
2018-11-12T17:03:21.783Z,51.92
2018-11-12T17:05:49.442Z,47.93
2018-11-12T17:08:17.135Z,49.43
2018-11-12T17:10:44.829Z,47.33
2018-11-12T17:13:12.460Z,55.50
2018-11-12T17:15:40.158Z,49.38
2018-11-12T17:18:07.853Z,44.33
2018-11-12T17:20:35.536Z,51.13
2018-11-12T17:23:03.331Z,52.47
2018-11-12T17:25:30.876Z,50.40
2018-11-12T17:27:58.573Z,47.75
2018-11-12T17:30:26.312Z,56.57
2018-11-12T17:32:54.226Z,47.37
2018-11-12T17:35:22.532Z,52.00
2018-11-12T17:37:50.372Z,49.53
2018-11-12T17:40:20.117Z,48.47
2018-11-12T17:42:48.569Z,51.67
2018-11-12T17:45:17.468Z,53.30
2018-11-12T17:47:46.444Z,47.20
2018-11-12T17:50:14.077Z,52.00
2018-11-12T17:52:42.106Z,52.25
2018-11-12T17:55:10.241Z,43.20
2018-11-12T17:57:38.219Z,51.87
2018-11-12T18:00:19.931Z,43.57
2018-11-12T18:02:48.429Z,45.00
2018-11-12T18:05:16.033Z,47.10
2018-11-12T18:07:43.847Z,51.48
2018-11-12T18:10:12.883Z,46.98
2018-11-12T18:12:40.472Z,44.93
2018-11-12T18:15:14.057Z,49.18
2018-11-12T18:17:42.321Z,48.20
2018-11-12T18:20:13.575Z,49.53
2018-11-12T18:22:41.273Z,53.70
2018-11-12T18:25:09.358Z,54.43
2018-11-12T18:27:37.517Z,48.07
2018-11-12T18:30:10.984Z,52.73
2018-11-12T18:32:38.692Z,52.87
2018-11-12T18:35:06.627Z,53.90
2018-11-12T18:37:34.713Z,51.77
2018-11-12T18:40:02.352Z,54.17
2018-11-12T18:42:29.931Z,48.23
2018-11-12T18:44:57.587Z,55.98
2018-11-12T18:47:25.219Z,53.57
2018-11-12T18:49:52.975Z,60.23
2018-11-12T18:52:20.691Z,51.17
2018-11-12T18:54:48.290Z,53.17
2018-11-12T18:57:15.945Z,55.47
2018-11-12T18:59:43.534Z,56.60
2018-11-12T19:02:11.429Z,54.70
2018-11-12T19:04:39.033Z,52.20
2018-11-12T19:07:07.089Z,53.48
2018-11-12T19:09:34.694Z,53.30
2018-11-12T19:12:02.340Z,56.70
2018-11-12T19:14:29.981Z,59.45
2018-11-12T19:16:57.583Z,50.33
2018-11-12T19:19:25.225Z,57.00
2018-11-12T19:21:52.934Z,60.83
2018-11-12T19:24:20.805Z,54.93
2018-11-12T19:26:48.435Z,54.53
2018-11-12T19:29:16.034Z,60.67
2018-11-12T19:31:43.784Z,57.17
2018-11-12T19:34:11.390Z,59.00
2018-11-12T19:36:39.066Z,58.85
2018-11-12T19:39:07.866Z,62.63
2018-11-12T19:41:35.533Z,60.30
2018-11-12T19:44:03.248Z,51.23
2018-11-12T19:46:30.894Z,57.25
2018-11-12T19:48:58.544Z,54.63
2018-11-12T19:51:26.289Z,56.63
2018-11-12T19:53:53.842Z,64.03
2018-11-12T19:56:21.538Z,53.50
2018-11-12T19:58:49.232Z,54.23
2018-11-12T20:01:16.859Z,53.20
2018-11-12T20:03:44.585Z,52.80
2018-11-12T20:06:12.286Z,53.53
2018-11-12T20:08:40.389Z,49.25
2018-11-12T20:11:08.050Z,49.77
2018-11-12T20:13:35.668Z,48.80
2018-11-12T20:16:03.440Z,45.03
2018-11-12T20:18:31.041Z,48.17
2018-11-12T20:20:59.019Z,48.30
2018-11-12T20:23:26.595Z,42.70
2018-11-12T20:25:54.228Z,43.30
2018-11-12T20:28:21.918Z,55.60
2018-11-12T20:30:49.514Z,44.42
2018-11-12T20:33:17.426Z,48.93
2018-11-12T20:35:45.027Z,49.30
2018-11-12T20:38:12.708Z,43.50
2018-11-12T20:40:40.624Z,42.33
2018-11-12T20:43:08.170Z,48.77
2018-11-12T20:45:35.766Z,50.65
2018-11-12T20:48:03.624Z,41.50
2018-11-12T20:50:31.223Z,40.57
2018-11-12T20:52:58.884Z,40.10
2018-11-12T20:55:26.559Z,48.07
2018-11-12T20:57:54.589Z,48.17
2018-11-12T21:00:23.640Z,50.70
2018-11-12T21:02:52.125Z,49.30
2018-11-12T21:05:22.007Z,48.63
2018-11-12T21:07:49.650Z,47.87
2018-11-12T21:10:18.160Z,44.98
2018-11-12T21:12:46.496Z,41.70
2018-11-12T21:15:15.215Z,51.73
2018-11-12T21:17:43.194Z,54.73
2018-11-12T21:20:13.931Z,45.10
2018-11-12T21:22:41.607Z,48.60
2018-11-12T21:25:10.488Z,43.00
2018-11-12T21:27:38.453Z,46.97
2018-11-12T21:30:10.100Z,48.73
2018-11-12T21:32:37.786Z,42.67
2018-11-12T21:35:06.448Z,41.73
2018-11-12T21:37:34.550Z,42.13
2018-11-12T21:40:02.399Z,42.00
2018-11-12T21:42:29.994Z,41.27
2018-11-12T21:44:57.582Z,42.48
2018-11-12T21:47:25.126Z,40.17
2018-11-12T21:49:52.810Z,49.17
2018-11-12T21:52:20.404Z,46.93
2018-11-12T21:54:48.138Z,45.35
2018-11-12T21:57:15.842Z,48.83
2018-11-12T21:59:43.573Z,47.30
2018-11-12T22:02:11.187Z,47.40
2018-11-12T22:04:38.765Z,46.73
2018-11-12T22:07:06.358Z,43.90
2018-11-12T22:09:33.933Z,44.00
2018-11-12T22:12:01.589Z,47.50
2018-11-12T22:14:29.213Z,43.80
2018-11-12T22:16:56.801Z,43.50
2018-11-12T22:19:24.415Z,44.03
2018-11-12T22:21:51.949Z,48.02
2018-11-12T22:24:19.598Z,43.47
2018-11-12T22:26:47.245Z,42.40
2018-11-12T22:29:14.933Z,43.50
2018-11-12T22:31:42.626Z,44.83
2018-11-12T22:34:10.289Z,43.73
2018-11-12T22:36:38.004Z,42.90
2018-11-12T22:39:07.707Z,43.35
2018-11-12T22:41:35.394Z,44.03
2018-11-12T22:44:03.051Z,46.30
2018-11-12T22:46:30.750Z,44.55
2018-11-12T22:48:58.318Z,44.60
2018-11-12T22:51:25.914Z,44.30
2018-11-12T22:53:53.532Z,40.70
2018-11-12T22:56:21.173Z,35.95
2018-11-12T22:58:48.815Z,41.60
2018-11-12T23:01:16.446Z,47.20
2018-11-12T23:03:44.392Z,41.30
2018-11-12T23:06:12.527Z,40.57
2018-11-12T23:08:41.044Z,40.90
2018-11-12T23:11:08.764Z,40.10
2018-11-12T23:13:36.633Z,41.58
2018-11-12T23:16:04.238Z,41.02
2018-11-12T23:18:32.050Z,41.10
2018-11-12T23:20:59.686Z,44.10
2018-11-12T23:23:27.229Z,36.70
2018-11-12T23:25:54.811Z,40.33
2018-11-12T23:28:22.426Z,36.63
2018-11-12T23:30:50.001Z,40.35
2018-11-12T23:33:17.593Z,34.57
2018-11-12T23:35:45.229Z,36.37
2018-11-12T23:38:12.832Z,31.13
2018-11-12T23:40:40.471Z,33.58
2018-11-12T23:43:08.084Z,32.63
2018-11-12T23:45:36.004Z,32.37
2018-11-12T23:48:03.885Z,33.77
2018-11-12T23:50:31.500Z,35.30
2018-11-12T23:52:59.088Z,36.57
2018-11-12T23:55:26.675Z,37.33
2018-11-12T23:57:54.264Z,35.80
